Time;durP1;ratioP1;P1;durP2;ratioP2;P2;SDS_P1;SDS_P2;PMS_P1;PMS_P2;Temp;Humidity;BMP_temperature;BMP_pressure;BME280_temperature;BME280_humidity;BME280_pressure;Samples;Min_cycle;Max_cycle;Signal;HPM_P1;HPM_P2
2023/04/12 00:04:33;;;;;;;3.73;1.70;;;;;;;7.67;100.00;100443.06;10385594;28;20048;-78
2023/04/12 00:09:35;;;;;;;4.88;2.00;;;;;;;7.56;100.00;100426.91;10382858;28;20355;-78
2023/04/12 00:14:35;;;;;;;7.00;2.70;;;;;;;7.44;100.00;100407.22;10384842;28;20378;-78
2023/04/12 00:19:40;;;;;;;7.80;2.47;;;;;;;7.33;100.00;100400.53;10384718;28;20065;-79
2023/04/12 00:24:41;;;;;;;5.78;1.90;;;;;;;7.22;100.00;100384.31;10386397;28;20123;-79
2023/04/12 00:29:41;;;;;;;7.82;2.78;;;;;;;7.13;100.00;100370.81;10377402;28;20121;-78
2023/04/12 00:34:42;;;;;;;7.80;1.90;;;;;;;7.14;100.00;100370.91;10386341;28;20065;-78
2023/04/12 00:39:43;;;;;;;6.00;3.83;;;;;;;7.14;100.00;100357.00;10379372;28;20120;-78
2023/04/12 00:44:43;;;;;;;5.72;1.83;;;;;;;7.16;100.00;100319.84;10386495;28;20061;-78
2023/04/12 00:49:44;;;;;;;6.07;3.38;;;;;;;7.18;100.00;100317.31;10379250;28;20164;-78
2023/04/12 00:54:44;;;;;;;5.85;1.65;;;;;;;7.09;100.00;100307.31;10386032;28;20489;-78
2023/04/12 00:59:45;;;;;;;6.35;2.10;;;;;;;7.12;100.00;100297.06;10378018;28;20065;-78
2023/04/12 01:04:49;;;;;;;9.43;1.45;;;;;;;7.11;100.00;100278.75;10352457;28;20099;-78
2023/04/12 01:09:56;;;;;;;4.75;1.88;;;;;;;7.05;100.00;100267.22;10344979;28;20038;-78
2023/04/12 01:15:03;;;;;;;6.80;1.52;;;;;;;7.09;100.00;100250.06;10381754;28;20037;-78
2023/04/12 01:20:22;;;;;;;5.22;1.65;;;;;;;7.07;100.00;100235.19;10375633;28;20034;-78
2023/04/12 01:25:33;;;;;;;5.35;2.20;;;;;;;7.10;100.00;100227.53;10366256;28;20124;-78
2023/04/12 01:30:33;;;;;;;3.25;1.80;;;;;;;7.12;100.00;100205.09;10361542;28;20042;-78
2023/04/12 01:35:34;;;;;;;6.25;2.60;;;;;;;7.15;100.00;100189.63;10371298;28;20048;-78
2023/04/12 01:40:35;;;;;;;4.00;1.50;;;;;;;7.10;100.00;100170.28;10387004;28;20034;-78
2023/04/12 01:45:35;;;;;;;6.68;1.50;;;;;;;7.07;100.00;100159.72;10367738;28;20029;-78
2023/04/12 01:50:45;;;;;;;7.82;1.80;;;;;;;7.05;100.00;100146.66;10378595;28;20040;-78
2023/04/12 01:55:46;;;;;;;4.63;1.35;;;;;;;7.10;100.00;100132.16;10352084;28;20049;-78
2023/04/12 02:00:46;;;;;;;3.42;1.13;;;;;;;7.14;100.00;100130.59;10366451;28;20116;-78
2023/04/12 02:05:47;;;;;;;11.57;1.60;;;;;;;7.18;100.00;100119.50;10385345;28;20932;-78
2023/04/12 02:10:47;;;;;;;4.40;0.98;;;;;;;7.25;100.00;100097.28;10354413;28;20060;-78
2023/04/12 02:15:48;;;;;;;7.63;1.35;;;;;;;7.17;100.00;100087.41;10400112;28;20041;-78
2023/04/12 02:20:48;;;;;;;6.07;1.80;;;;;;;7.05;100.00;100079.88;10377739;28;20061;-78
2023/04/12 02:25:49;;;;;;;2.10;1.25;;;;;;;7.05;100.00;100063.38;10377875;28;20081;-78
2023/04/12 02:30:52;;;;;;;8.10;2.20;;;;;;;7.07;100.00;100046.13;10358633;28;20507;-78
2023/04/12 02:35:53;;;;;;;2.63;1.17;;;;;;;7.14;100.00;100021.28;10400386;28;20494;-78
2023/04/12 02:40:54;;;;;;;3.13;1.48;;;;;;;7.19;100.00;100006.78;10385819;28;20045;-78
2023/04/12 02:45:55;;;;;;;6.45;1.60;;;;;;;7.20;100.00;99986.06;10400428;28;20547;-78
2023/04/12 02:50:55;;;;;;;6.07;2.15;;;;;;;7.20;100.00;99974.72;10388279;28;20115;-77
2023/04/12 02:56:00;;;;;;;6.43;1.08;;;;;;;7.25;100.00;99949.81;10382365;28;20081;-79
2023/04/12 03:01:00;;;;;;;4.50;1.70;;;;;;;7.29;100.00;99936.13;10375157;28;20108;-78
2023/04/12 03:06:01;;;;;;;4.25;1.10;;;;;;;7.28;100.00;99928.25;10370006;28;20136;-78
2023/04/12 03:11:01;;;;;;;2.92;1.00;;;;;;;7.31;100.00;99918.84;10379562;28;20120;-78
2023/04/12 03:16:18;;;;;;;1.38;0.82;;;;;;;7.23;100.00;99904.59;10394692;28;20045;-78
2023/04/12 03:21:19;;;;;;;2.05;1.00;;;;;;;7.09;100.00;99896.19;10353603;28;20060;-78
2023/04/12 03:26:19;;;;;;;3.40;1.10;;;;;;;7.10;100.00;99882.34;10401717;28;20462;-77
2023/04/12 03:31:20;;;;;;;4.38;1.15;;;;;;;7.00;100.00;99882.75;10382182;28;20093;-78
2023/04/12 03:36:21;;;;;;;3.10;2.15;;;;;;;6.84;100.00;99868.13;10366202;28;20061;-79
2023/04/12 03:41:22;;;;;;;2.50;0.85;;;;;;;6.82;100.00;99868.06;10382962;28;20076;-79
2023/04/12 03:46:22;;;;;;;2.07;1.27;;;;;;;6.69;100.00;99858.78;10365510;28;20041;-78
2023/04/12 03:51:25;;;;;;;3.58;0.95;;;;;;;6.57;100.00;99850.41;10380853;28;20045;-77
2023/04/12 03:56:26;;;;;;;1.33;0.90;;;;;;;6.51;100.00;99845.81;10405941;28;20041;-78
2023/04/12 04:01:27;;;;;;;3.70;2.38;;;;;;;6.55;100.00;99832.16;10382450;28;20065;-78
2023/04/12 04:06:28;;;;;;;4.55;1.13;;;;;;;6.50;100.00;99825.84;10371622;28;20042;-77
2023/04/12 04:11:30;;;;;;;1.73;0.98;;;;;;;6.42;100.00;99811.59;10387346;28;20040;-76
2023/04/12 04:16:31;;;;;;;4.35;1.40;;;;;;;6.37;100.00;99811.34;10372377;28;20049;-78
2023/04/12 04:21:31;;;;;;;3.58;1.52;;;;;;;6.34;100.00;99806.00;10394429;28;20537;-78
2023/04/12 04:26:32;;;;;;;2.63;1.30;;;;;;;6.35;100.00;99797.41;10369747;28;20139;-79
2023/04/12 04:31:36;;;;;;;2.25;1.30;;;;;;;6.26;100.00;99794.38;10353665;28;20128;-78
2023/04/12 04:36:37;;;;;;;2.88;1.92;;;;;;;6.23;100.00;99789.03;10339268;28;20359;-78
2023/04/12 04:41:40;;;;;;;3.58;1.67;;;;;;;6.17;100.00;99795.69;10355684;28;20034;-77
2023/04/12 04:46:41;;;;;;;3.38;1.60;;;;;;;6.17;100.00;99777.50;10389399;28;20046;-77
2023/04/12 04:51:41;;;;;;;2.63;1.63;;;;;;;6.19;100.00;99787.09;10386682;28;20393;-77
2023/04/12 04:56:42;;;;;;;3.72;1.48;;;;;;;6.23;100.00;99773.44;10387355;28;20046;-78
2023/04/12 05:01:42;;;;;;;7.05;2.53;;;;;;;6.20;100.00;99768.09;10342652;28;20070;-78
2023/04/12 05:06:44;;;;;;;3.63;1.92;;;;;;;6.25;100.00;99769.19;10388990;28;20125;-79
2023/04/12 05:11:45;;;;;;;5.15;1.35;;;;;;;6.22;100.00;99764.75;10375978;28;20045;-77
2023/04/12 05:16:45;;;;;;;2.78;1.35;;;;;;;6.23;100.00;99756.16;10377194;28;20839;-78
2023/04/12 05:21:46;;;;;;;5.35;1.70;;;;;;;6.27;100.00;99746.78;10360929;28;20120;-76
2023/04/12 05:26:46;;;;;;;9.77;1.60;;;;;;;6.36;100.00;99739.41;10360643;28;20077;-76
2023/04/12 05:31:47;;;;;;;4.22;1.35;;;;;;;6.38;100.00;99722.16;10372808;28;20129;-76
2023/04/12 05:36:47;;;;;;;2.85;1.75;;;;;;;6.37;100.00;99720.41;10361018;28;20120;-76
2023/04/12 05:41:48;;;;;;;3.70;2.33;;;;;;;6.40;100.00;99717.06;10373303;28;20042;-77
2023/04/12 05:46:48;;;;;;;7.35;1.55;;;;;;;6.40;100.00;99712.75;10367712;28;20061;-76
2023/04/12 05:51:49;;;;;;;11.70;4.72;;;;;;;6.45;100.00;99710.38;10347822;28;20090;-76
2023/04/12 05:56:53;;;;;;;4.63;1.95;;;;;;;6.48;100.00;99702.72;10352379;28;20470;-77
2023/04/12 06:01:53;;;;;;;2.45;1.83;;;;;;;6.53;100.00;99700.28;10356959;28;20045;-75
2023/04/12 06:06:55;;;;;;;3.47;1.80;;;;;;;6.52;100.00;99694.22;10366264;28;20049;-75
2023/04/12 06:11:56;;;;;;;7.88;2.50;;;;;;;6.59;100.00;99679.78;10382830;28;20465;-75
2023/04/12 06:16:56;;;;;;;3.47;1.58;;;;;;;6.63;100.00;99688.63;10346424;28;20121;-75
2023/04/12 06:21:57;;;;;;;4.55;1.77;;;;;;;6.63;100.00;99662.63;10345749;28;20375;-75
2023/04/12 06:26:57;;;;;;;2.75;1.50;;;;;;;6.70;100.00;99656.88;10410696;28;20144;-76
2023/04/12 06:31:58;;;;;;;3.22;1.67;;;;;;;6.79;100.00;99656.38;10370257;28;20041;-76
2023/04/12 06:36:58;;;;;;;4.80;2.08;;;;;;;6.88;100.00;99646.34;10382437;28;20072;-76
2023/04/12 06:42:00;;;;;;;4.57;1.83;;;;;;;6.96;100.00;99644.09;10381178;28;20061;-76
2023/04/12 06:47:00;;;;;;;12.88;7.00;;;;;;;7.00;100.00;99635.59;10370759;28;20042;-76
2023/04/12 06:52:01;;;;;;;10.52;4.43;;;;;;;7.09;100.00;99630.78;10375676;28;20121;-77
2023/04/12 06:57:01;;;;;;;10.18;5.97;;;;;;;7.23;100.00;99627.88;10365541;28;20494;-78
2023/04/12 07:02:02;;;;;;;3.75;1.67;;;;;;;7.26;100.00;99608.03;10373766;28;20041;-77
2023/04/12 07:07:02;;;;;;;4.68;2.50;;;;;;;7.35;100.00;99604.94;10359907;28;20132;-76
2023/04/12 07:12:03;;;;;;;6.10;1.52;;;;;;;7.38;100.00;99601.56;10382216;28;20074;-75
2023/04/12 07:17:04;;;;;;;5.00;2.50;;;;;;;7.43;100.00;99600.94;10373647;28;20046;-74
2023/04/12 07:22:04;;;;;;;2.03;0.90;;;;;;;7.45;100.00;99587.97;10388572;28;20070;-75
2023/04/12 07:27:05;;;;;;;2.75;0.88;;;;;;;7.57;100.00;99600.59;10379812;28;20081;-75
2023/04/12 07:32:06;;;;;;;3.28;0.90;;;;;;;7.66;100.00;99592.22;10385652;28;20861;-74
2023/04/12 07:37:07;;;;;;;2.37;1.00;;;;;;;7.58;100.00;99605.84;10370307;28;20038;-75
2023/04/12 07:42:08;;;;;;;2.13;0.93;;;;;;;7.52;100.00;99603.00;10381942;28;20041;-74
2023/04/12 07:47:08;;;;;;;2.38;1.30;;;;;;;7.55;100.00;99581.41;10370228;28;20489;-75
2023/04/12 07:52:08;;;;;;;3.00;1.27;;;;;;;7.59;100.00;99586.78;10363022;28;20119;-75
2023/04/12 07:57:09;;;;;;;4.82;0.88;;;;;;;7.57;100.00;99587.56;10364168;28;20048;-75
2023/04/12 08:02:10;;;;;;;2.95;1.35;;;;;;;7.57;100.00;99590.19;10361210;28;20133;-75
2023/04/12 08:07:10;;;;;;;2.58;1.30;;;;;;;7.62;100.00;99581.69;10363999;28;20367;-75
2023/04/12 08:12:11;;;;;;;2.63;1.45;;;;;;;7.72;100.00;99582.97;10362282;28;20180;-75
2023/04/12 08:17:11;;;;;;;3.08;1.63;;;;;;;7.85;100.00;99586.91;10345266;28;20073;-78
2023/04/12 08:22:12;;;;;;;1.88;1.50;;;;;;;7.89;100.00;99594.00;10363425;28;20128;-75
2023/04/12 08:27:12;;;;;;;1.75;1.02;;;;;;;7.79;100.00;99604.91;10345451;28;20554;-76
2023/04/12 08:32:13;;;;;;;3.95;2.53;;;;;;;7.86;100.00;99609.53;10362364;28;20053;-76
2023/04/12 08:37:14;;;;;;;6.97;3.47;;;;;;;7.92;100.00;99609.75;10360661;28;20398;-75
2023/04/12 08:42:15;;;;;;;7.25;3.90;;;;;;;8.48;100.00;99614.41;10361243;28;20049;-75
2023/04/12 08:47:16;;;;;;;13.73;4.50;;;;;;;9.24;100.00;99614.44;10362096;28;20040;-75
2023/04/12 08:52:16;;;;;;;8.75;5.32;;;;;;;9.64;100.00;99621.78;10361221;28;20688;-75
2023/04/12 08:57:17;;;;;;;7.03;4.22;;;;;;;9.77;100.00;99610.88;10362620;28;20054;-75
2023/04/12 09:02:17;;;;;;;15.80;5.57;;;;;;;9.69;100.00;99602.78;10360454;28;20061;-75
2023/04/12 09:07:21;;;;;;;12.82;5.10;;;;;;;10.30;100.00;99591.47;10362300;28;20038;-75
2023/04/12 09:12:25;;;;;;;9.75;3.88;;;;;;;10.64;100.00;99581.97;10360239;28;20088;-76
2023/04/12 09:17:26;;;;;;;8.32;4.68;;;;;;;10.07;100.00;99582.97;10360239;28;20056;-75
2023/04/12 09:22:34;;;;;;;11.00;4.43;;;;;;;10.15;100.00;99586.69;10360516;28;20401;-75
2023/04/12 09:27:53;;;;;;;15.73;5.22;;;;;;;12.32;100.00;99571.00;10343464;28;20029;-75
2023/04/12 09:32:54;;;;;;;9.82;3.90;;;;;;;14.98;100.00;99540.63;10357921;28;20037;-76
2023/04/12 09:37:58;;;;;;;11.75;3.28;;;;;;;17.36;100.00;99552.06;10392144;28;20052;-76
2023/04/12 09:42:58;;;;;;;6.45;3.80;;;;;;;15.91;100.00;99549.16;10361758;28;20038;-76
2023/04/12 09:47:59;;;;;;;9.07;3.75;;;;;;;14.32;100.00;99552.22;10360527;28;20038;-76
2023/04/12 09:53:01;;;;;;;12.38;4.88;;;;;;;13.49;100.00;99555.53;10361490;28;20044;-76
2023/04/12 09:58:02;;;;;;;;;;;;;;;12.98;100.00;99541.59;10361678;28;20394;-76
2023/04/12 10:03:03;;;;;;;10.27;4.57;;;;;;;12.99;100.00;99558.22;10367656;28;19924;-76
2023/04/12 10:08:04;;;;;;;8.95;3.35;;;;;;;12.91;100.00;99561.59;10366858;28;20121;-76
2023/04/12 10:13:05;;;;;;;7.78;3.70;;;;;;;12.62;100.00;99569.84;10365110;28;20042;-76
2023/04/12 10:18:05;;;;;;;13.98;3.83;;;;;;;12.05;100.00;99566.09;10366698;28;20040;-76
2023/04/12 10:23:07;;;;;;;8.10;3.13;;;;;;;11.20;100.00;99565.06;10350551;28;20579;-76
2023/04/12 10:28:16;;;;;;;8.50;5.73;;;;;;;11.12;100.00;99551.78;10366684;28;20383;-76
2023/04/12 10:33:18;;;;;;;14.50;5.03;;;;;;;12.23;100.00;99556.84;10367564;28;20041;-76
2023/04/12 10:38:18;;;;;;;9.55;3.85;;;;;;;13.13;100.00;99555.84;10350180;28;20049;-76
2023/04/12 10:43:21;;;;;;;10.23;4.47;;;;;;;12.77;100.00;99561.38;10365819;28;20124;-77
2023/04/12 10:48:35;;;;;;;9.73;4.55;;;;;;;12.85;100.00;99563.25;10367485;28;20516;-76
2023/04/12 10:53:35;;;;;;;17.60;6.28;;;;;;;12.30;100.00;99570.09;10365709;28;20116;-76
2023/04/12 10:58:48;;;;;;;17.30;5.35;;;;;;;11.52;100.00;99569.28;10365062;28;20176;-77
2023/04/12 11:04:11;;;;;;;13.90;6.53;;;;;;;11.28;100.00;99584.47;10365714;28;20041;-76
2023/04/12 11:09:33;;;;;;;14.80;6.80;;;;;;;12.72;100.00;99570.91;10366306;28;20050;-76
2023/04/12 11:14:37;;;;;;;19.00;6.45;;;;;;;14.59;100.00;99558.63;10365559;28;20034;-76
2023/04/12 11:19:39;;;;;;;10.85;4.95;;;;;;;15.69;100.00;99548.13;10365682;28;20493;-76
2023/04/12 11:24:44;;;;;;;10.10;3.30;;;;;;;15.21;100.00;99550.47;10348664;28;20374;-76
2023/04/12 11:29:47;;;;;;;10.60;4.10;;;;;;;16.13;100.00;99549.25;10363918;28;20445;-76
2023/04/12 11:34:47;;;;;;;10.15;3.03;;;;;;;16.07;100.00;99544.81;10347648;28;20490;-76
2023/04/12 11:39:53;;;;;;;11.63;3.25;;;;;;;14.41;100.00;99550.56;10364974;28;20030;-76
2023/04/12 11:44:53;;;;;;;9.73;3.30;;;;;;;13.73;100.00;99559.38;10348047;28;20490;-76
2023/04/12 11:49:55;;;;;;;12.45;3.30;;;;;;;13.52;100.00;99557.34;10363702;28;20080;-76
2023/04/12 11:55:01;;;;;;;18.10;4.70;;;;;;;13.29;100.00;99556.94;10346624;28;20406;-76
2023/04/12 12:00:04;;;;;;;12.35;3.40;;;;;;;13.39;100.00;99553.59;10363299;28;20109;-76
2023/04/12 12:05:05;;;;;;;11.35;4.45;;;;;;;13.17;100.00;99558.50;10404044;28;20401;-76
2023/04/12 12:10:06;;;;;;;11.65;3.80;;;;;;;13.36;100.00;99561.44;10420368;28;20037;-76
2023/04/12 12:15:07;;;;;;;8.55;2.50;;;;;;;13.12;100.00;99554.06;10402935;28;20046;-76
2023/04/12 12:20:18;;;;;;;11.35;4.93;;;;;;;12.63;100.00;99566.34;10410110;28;20363;-76
2023/04/12 12:25:19;;;;;;;5.70;2.13;;;;;;;12.68;100.00;99560.31;10344711;28;20462;-75
2023/04/12 12:30:22;;;;;;;11.40;3.25;;;;;;;12.00;100.00;99573.00;10342146;28;20095;-75
2023/04/12 12:35:24;;;;;;;10.85;2.67;;;;;;;11.11;100.00;99593.66;10343824;28;20042;-75
2023/04/12 12:40:30;;;;;;;5.47;3.30;;;;;;;10.34;100.00;99595.97;10360792;28;20045;-75
2023/04/12 12:45:31;;;;;;;6.38;1.70;;;;;;;9.55;100.00;99597.13;10344442;28;20116;-74
2023/04/12 12:50:32;;;;;;;13.75;3.10;;;;;;;9.29;100.00;99593.69;10359436;28;20485;-75
2023/04/12 12:55:33;;;;;;;11.57;2.97;;;;;;;9.40;100.00;99592.28;10359126;28;20037;-76
2023/04/12 13:00:34;;;;;;;9.93;2.42;;;;;;;9.43;100.00;99596.75;10360522;28;20121;-76
2023/04/12 13:05:34;;;;;;;19.58;4.32;;;;;;;9.46;100.00;99591.63;10357023;28;20046;-76
2023/04/12 13:10:35;;;;;;;8.95;4.15;;;;;;;9.80;100.00;99602.22;10363426;28;20052;-76
2023/04/12 13:15:35;;;;;;;6.30;2.90;;;;;;;9.70;100.00;99599.31;10359183;28;20107;-75
2023/04/12 13:20:36;;;;;;;8.55;2.95;;;;;;;8.71;100.00;99640.44;10361428;28;20030;-75
2023/04/12 13:25:37;;;;;;;7.40;2.13;;;;;;;8.12;100.00;99613.97;10355762;28;20065;-75
2023/04/12 13:30:38;;;;;;;6.22;2.63;;;;;;;8.46;100.00;99609.97;10358967;28;20532;-75
2023/04/12 13:35:38;;;;;;;7.70;2.13;;;;;;;9.48;100.00;99609.94;10324705;28;20061;-75
2023/04/12 13:40:39;;;;;;;10.38;2.08;;;;;;;13.48;100.00;99592.31;10349897;28;20044;-74
2023/04/12 13:45:39;;;;;;;4.38;2.33;;;;;;;15.73;100.00;99596.50;10363335;28;20065;-75
2023/04/12 13:50:40;;;;;;;8.95;2.05;;;;;;;14.83;100.00;99597.56;10368171;28;20121;-75
2023/04/12 13:55:40;;;;;;;4.47;1.67;;;;;;;12.32;100.00;99657.59;10374420;28;20072;-75
2023/04/12 14:00:41;;;;;;;1.95;1.13;;;;;;;7.60;100.00;99708.34;10342492;28;20085;-75
2023/04/12 14:05:41;;;;;;;9.10;6.75;;;;;;;5.84;100.00;99699.72;10359825;28;20165;-76
2023/04/12 14:10:42;;;;;;;5.50;1.60;;;;;;;5.41;100.00;99685.56;10364886;28;20133;-74
2023/04/12 14:15:43;;;;;;;4.07;2.05;;;;;;;7.71;100.00;99661.91;10363939;28;20091;-73
2023/04/12 14:20:47;;;;;;;4.45;1.50;;;;;;;10.97;100.00;99637.78;10356105;28;20053;-73
2023/04/12 14:25:48;;;;;;;6.07;1.60;;;;;;;11.95;100.00;99627.03;10356099;28;20038;-74
2023/04/12 14:30:49;;;;;;;1.92;1.15;;;;;;;10.52;100.00;99624.38;10363365;28;20445;-74
2023/04/12 14:35:50;;;;;;;4.93;1.52;;;;;;;9.64;100.00;99634.84;10361533;28;20050;-74
2023/04/12 14:40:53;;;;;;;5.07;1.08;;;;;;;11.00;100.00;99630.00;10358015;28;20038;-74
2023/04/12 14:45:53;;;;;;;8.57;1.38;;;;;;;10.54;100.00;99622.69;10395239;28;20150;-75
2023/04/12 14:50:54;;;;;;;2.47;0.80;;;;;;;13.01;100.00;99617.81;10367239;28;20092;-74
2023/04/12 14:55:55;;;;;;;3.63;1.10;;;;;;;13.39;100.00;99624.53;10376761;28;20072;-74
2023/04/12 15:00:56;;;;;;;2.50;1.40;;;;;;;12.34;100.00;99629.66;10384394;28;20081;-75
2023/04/12 15:05:57;;;;;;;3.92;1.13;;;;;;;11.42;100.00;99617.97;10367226;28;20030;-74
2023/04/12 15:10:58;;;;;;;5.85;1.10;;;;;;;10.62;100.00;99624.63;10381089;28;20053;-74
2023/04/12 15:15:58;;;;;;;4.68;1.55;;;;;;;9.88;100.00;99628.59;10407235;28;20132;-75
2023/04/12 15:21:01;;;;;;;3.90;1.08;;;;;;;9.58;100.00;99639.88;10403723;28;20116;-75
2023/04/12 15:26:02;;;;;;;3.63;1.15;;;;;;;9.23;100.00;99669.19;10372914;28;20084;-75
2023/04/12 15:31:03;;;;;;;2.53;0.95;;;;;;;8.15;100.00;99674.00;10378946;28;20046;-75
2023/04/12 15:36:04;;;;;;;2.87;0.50;;;;;;;7.50;100.00;99687.97;10363257;28;20104;-75
2023/04/12 15:41:04;;;;;;;5.03;1.67;;;;;;;7.20;100.00;99667.66;10365712;28;20030;-75
2023/04/12 15:46:05;;;;;;;2.83;0.80;;;;;;;7.27;100.00;99653.19;10359276;28;20045;-75
2023/04/12 15:51:06;;;;;;;1.80;0.60;;;;;;;7.36;100.00;99663.97;10375645;28;20125;-75
2023/04/12 15:56:07;;;;;;;1.85;0.60;;;;;;;7.54;100.00;99660.34;10379509;28;20064;-75
2023/04/12 16:01:08;;;;;;;2.20;1.00;;;;;;;7.90;100.00;99637.47;10360384;28;20065;-75
2023/04/12 16:06:09;;;;;;;1.15;0.40;;;;;;;8.22;100.00;99634.31;10379240;28;20121;-75
2023/04/12 16:11:10;;;;;;;2.58;1.52;;;;;;;8.50;100.00;99644.06;10366695;28;20109;-75
2023/04/12 16:16:12;;;;;;;2.65;0.82;;;;;;;8.84;100.00;99639.19;10367906;28;20034;-75
2023/04/12 16:21:18;;;;;;;3.07;0.80;;;;;;;8.74;100.00;99622.31;10382026;28;20052;-74
2023/04/12 16:26:20;;;;;;;4.18;1.15;;;;;;;8.53;100.00;99606.78;10370535;28;20057;-74
2023/04/12 16:31:21;;;;;;;2.15;0.98;;;;;;;8.41;100.00;99612.41;10393896;28;20038;-75
2023/04/12 16:36:22;;;;;;;1.10;0.80;;;;;;;8.40;100.00;99609.75;10357011;28;20125;-75
2023/04/12 16:41:22;;;;;;;2.53;1.02;;;;;;;8.35;100.00;99609.56;10378358;28;20038;-75
2023/04/12 16:46:23;;;;;;;1.58;0.63;;;;;;;8.35;100.00;99614.78;10373074;28;20120;-75
2023/04/12 16:51:23;;;;;;;2.03;0.50;;;;;;;8.40;100.00;99614.97;10385190;28;20045;-75
2023/04/12 16:56:24;;;;;;;4.40;1.60;;;;;;;8.41;100.00;99609.81;10325106;28;20104;-75
2023/04/12 17:01:24;;;;;;;4.75;1.00;;;;;;;8.44;100.00;99614.25;10366448;28;20112;-75
2023/04/12 17:06:29;;;;;;;4.18;0.80;;;;;;;8.14;100.00;99605.34;10360876;28;20453;-74
2023/04/12 17:11:30;;;;;;;2.65;0.82;;;;;;;7.89;100.00;99614.84;10363403;28;20042;-75
2023/04/12 17:16:35;;;;;;;4.20;1.20;;;;;;;7.76;100.00;99610.91;10358846;28;20076;-74
2023/04/12 17:21:41;;;;;;;3.70;1.48;;;;;;;7.68;100.00;99614.00;10357661;28;20072;-75
2023/04/12 17:26:41;;;;;;;2.50;0.88;;;;;;;7.53;100.00;99612.59;10365800;28;20038;-74
2023/04/12 17:31:44;;;;;;;8.00;2.45;;;;;;;7.52;100.00;99609.94;10387572;28;20120;-75
2023/04/12 17:36:44;;;;;;;2.50;0.90;;;;;;;7.97;100.00;99609.94;10374176;28;20054;-74
2023/04/12 17:41:45;;;;;;;4.63;1.30;;;;;;;8.42;100.00;99608.97;10396519;28;20397;-76
2023/04/12 17:46:46;;;;;;;2.30;1.20;;;;;;;8.55;100.00;99614.66;10383343;28;20541;-75
2023/04/12 17:51:47;;;;;;;4.15;1.10;;;;;;;8.51;100.00;99611.06;10375390;28;20034;-75
2023/04/12 17:56:49;;;;;;;1.70;0.85;;;;;;;8.28;100.00;99607.56;10337969;28;20406;-76
2023/04/12 18:01:50;;;;;;;3.78;1.08;;;;;;;7.96;100.00;99612.47;10351968;28;20045;-76
2023/04/12 18:06:51;;;;;;;2.90;1.35;;;;;;;7.72;100.00;99613.31;10409188;28;20043;-76
2023/04/12 18:11:51;;;;;;;3.63;1.73;;;;;;;7.46;100.00;99615.78;10367023;28;20064;-77
2023/04/12 18:16:52;;;;;;;3.67;1.00;;;;;;;7.11;100.00;99617.81;10385696;28;20603;-76
2023/04/12 18:21:53;;;;;;;1.52;1.02;;;;;;;6.66;100.00;99623.75;10382692;28;20029;-76
2023/04/12 18:26:53;;;;;;;1.75;0.93;;;;;;;6.34;100.00;99615.44;10372004;28;20492;-77
2023/04/12 18:31:54;;;;;;;5.45;1.48;;;;;;;6.02;100.00;99621.84;10371798;28;20096;-76
2023/04/12 18:36:54;;;;;;;5.45;1.20;;;;;;;5.64;100.00;99633.88;10405559;28;20456;-76
2023/04/12 18:41:55;;;;;;;2.47;1.90;;;;;;;5.47;100.00;99632.19;10398479;28;20060;-77
2023/04/12 18:46:56;;;;;;;2.67;0.80;;;;;;;5.35;100.00;99632.47;10385581;28;20033;-76
2023/04/12 18:51:57;;;;;;;2.95;1.98;;;;;;;5.44;100.00;99649.38;10384241;28;20191;-76
2023/04/12 18:57:00;;;;;;;3.83;1.40;;;;;;;5.55;100.00;99646.41;10365220;28;20051;-76
2023/04/12 19:02:01;;;;;;;5.75;1.33;;;;;;;5.64;100.00;99674.50;10374122;28;20042;-75
2023/04/12 19:07:01;;;;;;;4.88;1.80;;;;;;;5.72;100.00;99681.88;10347562;28;20088;-77
2023/04/12 19:12:04;;;;;;;6.72;1.00;;;;;;;6.13;100.00;99687.25;10347628;28;20612;-76
2023/04/12 19:17:04;;;;;;;3.72;1.48;;;;;;;6.76;100.00;99673.59;10378248;28;20041;-76
2023/04/12 19:22:05;;;;;;;6.28;1.08;;;;;;;6.92;100.00;99650.00;10348926;28;20042;-76
2023/04/12 19:27:06;;;;;;;5.25;0.77;;;;;;;6.59;100.00;99665.09;10361920;28;20074;-76
2023/04/12 19:32:10;;;;;;;1.33;0.52;;;;;;;6.19;100.00;99659.78;10355767;28;20038;-75
2023/04/12 19:37:11;;;;;;;4.93;1.00;;;;;;;5.76;100.00;99664.72;10373901;28;20144;-76
2023/04/12 19:42:13;;;;;;;2.42;0.70;;;;;;;5.37;100.00;99643.81;10372065;28;20038;-75
2023/04/12 19:47:14;;;;;;;2.65;0.70;;;;;;;4.96;100.00;99654.78;10384960;28;20123;-75
2023/04/12 19:52:18;;;;;;;4.93;1.25;;;;;;;4.62;100.00;99653.06;10389673;28;20905;-75
2023/04/12 19:57:19;;;;;;;3.42;0.82;;;;;;;4.29;100.00;99645.31;10355601;28;20041;-76
2023/04/12 20:02:20;;;;;;;1.60;0.60;;;;;;;4.05;100.00;99647.47;10377339;28;20097;-76
2023/04/12 20:07:20;;;;;;;1.55;0.82;;;;;;;3.81;100.00;99642.75;10379577;28;20112;-75
2023/04/12 20:12:21;;;;;;;6.05;2.13;;;;;;;3.62;100.00;99643.41;10369177;28;20038;-76
2023/04/12 20:17:22;;;;;;;2.53;1.10;;;;;;;3.45;100.00;99638.19;10387412;28;20068;-76
2023/04/12 20:22:22;;;;;;;1.43;0.60;;;;;;;3.48;100.00;99642.66;10374164;28;20038;-75
2023/04/12 20:27:23;;;;;;;5.35;1.15;;;;;;;3.33;100.00;99648.72;10320283;28;20054;-75
2023/04/12 20:32:24;;;;;;;2.60;1.10;;;;;;;3.24;100.00;99637.88;10358852;28;20049;-75
2023/04/12 20:37:24;;;;;;;2.80;1.55;;;;;;;3.32;100.00;99630.53;10363229;28;20084;-77
2023/04/12 20:42:25;;;;;;;3.55;1.50;;;;;;;3.36;100.00;99623.03;10366864;28;20096;-75
2023/04/12 20:47:26;;;;;;;4.80;1.27;;;;;;;3.46;100.00;99619.25;10344525;28;20029;-75
2023/04/12 20:52:26;;;;;;;9.57;1.73;;;;;;;3.59;100.00;99640.66;10361577;28;20091;-75
2023/04/12 20:57:27;;;;;;;4.75;1.50;;;;;;;3.63;100.00;99648.69;10380357;28;20109;-75
2023/04/12 21:02:28;;;;;;;2.85;1.30;;;;;;;3.62;100.00;99614.94;10364431;28;20037;-75
2023/04/12 21:07:28;;;;;;;1.33;0.70;;;;;;;3.47;100.00;99612.41;10366595;28;20482;-76
2023/04/12 21:12:30;;;;;;;2.35;1.02;;;;;;;3.43;100.00;99602.69;10350452;28;20118;-76
2023/04/12 21:17:31;;;;;;;2.10;1.20;;;;;;;3.31;100.00;99597.72;10317696;28;20482;-74
2023/04/12 21:22:31;;;;;;;3.45;1.10;;;;;;;3.10;100.00;99600.84;10311318;28;20185;-76
2023/04/12 21:27:32;;;;;;;3.30;1.75;;;;;;;3.08;100.00;99589.53;10339416;28;20121;-75
2023/04/12 21:32:32;;;;;;;4.60;1.48;;;;;;;3.20;100.00;99590.22;10359340;28;20072;-75
2023/04/12 21:37:34;;;;;;;5.35;1.33;;;;;;;3.35;100.00;99587.63;10358740;28;20455;-75
2023/04/12 21:42:35;;;;;;;3.20;1.50;;;;;;;3.50;100.00;99569.47;10358430;28;20049;-76
2023/04/12 21:47:37;;;;;;;4.68;2.40;;;;;;;3.64;100.00;99559.00;10387057;28;20432;-75
2023/04/12 21:52:39;;;;;;;2.22;1.75;;;;;;;3.96;100.00;99542.63;10362940;28;20042;-75
2023/04/12 21:57:40;;;;;;;2.95;1.63;;;;;;;4.13;100.00;99531.34;10359796;28;20072;-75
2023/04/12 22:02:41;;;;;;;3.92;1.67;;;;;;;4.44;100.00;99504.41;10370231;28;20154;-75
2023/04/12 22:07:41;;;;;;;3.33;1.10;;;;;;;4.58;100.00;99503.41;10332637;28;20188;-75
2023/04/12 22:12:49;;;;;;;2.88;2.00;;;;;;;4.59;100.00;99496.53;10330060;28;20117;-75
2023/04/12 22:17:49;;;;;;;2.88;0.70;;;;;;;4.77;100.00;99487.06;10356419;28;20122;-76
2023/04/12 22:22:50;;;;;;;2.13;0.70;;;;;;;4.86;100.00;99476.25;10395756;28;20037;-75
2023/04/12 22:27:52;;;;;;;3.90;1.30;;;;;;;5.12;100.00;99474.91;10403131;28;20547;-75
2023/04/12 22:32:52;;;;;;;2.95;1.17;;;;;;;5.24;100.00;99469.41;10373789;28;20395;-75
2023/04/12 22:37:53;;;;;;;1.90;0.60;;;;;;;5.40;100.00;99459.72;10413057;28;20129;-76
2023/04/12 22:42:54;;;;;;;2.28;0.75;;;;;;;5.55;100.00;99456.94;10398476;28;20041;-75
2023/04/12 22:47:55;;;;;;;1.40;0.60;;;;;;;5.43;100.00;99440.00;10381922;28;20493;-75
2023/04/12 22:52:56;;;;;;;3.55;1.35;;;;;;;5.48;100.00;99422.03;10372490;28;20112;-75
2023/04/12 22:57:58;;;;;;;;;;;;;;;5.55;100.00;99416.28;10395122;28;20041;-75
2023/04/12 23:02:58;;;;;;;1.75;0.82;;;;;;;5.74;100.00;99401.53;10387083;28;19922;-75
2023/04/12 23:07:59;;;;;;;3.33;2.15;;;;;;;5.88;100.00;99399.56;10390023;28;20176;-75
2023/04/12 23:13:00;;;;;;;1.63;0.70;;;;;;;6.16;100.00;99404.22;10365791;28;20058;-75
2023/04/12 23:18:01;;;;;;;3.13;0.73;;;;;;;6.12;100.00;99388.47;10363582;28;20129;-76